Time;durP1;ratioP1;P1;durP2;ratioP2;P2;SDS_P1;SDS_P2;PMS_P1;PMS_P2;Temp;Humidity;BMP_temperature;BMP_pressure;BME280_temperature;BME280_humidity;BME280_pressure;Samples;Min_cycle;Max_cycle;Signal;HPM_P1;HPM_P2
2021/08/05 00:01:01;;;;;;;12.60;6.35;;;;;;;27.08;39.99;100043.28;4404835;32;20112;-68
2021/08/05 00:03:27;;;;;;;15.43;7.05;;;;;;;27.10;39.96;100039.84;4401471;32;20068;-68
2021/08/05 00:05:53;;;;;;;10.88;6.20;;;;;;;27.21;39.73;100042.38;4404403;32;21471;-68
2021/08/05 00:08:18;;;;;;;16.37;8.38;;;;;;;27.09;39.77;100036.16;4405073;32;20085;-70
2021/08/05 00:10:44;;;;;;;8.77;5.87;;;;;;;27.09;39.80;100033.28;4406254;32;20603;-68
2021/08/05 00:13:09;;;;;;;12.57;8.48;;;;;;;27.04;39.84;100027.66;4401875;32;20076;-68
2021/08/05 00:15:35;;;;;;;10.93;6.50;;;;;;;26.98;39.90;100024.97;4405659;32;20046;-68
2021/08/05 00:18:01;;;;;;;17.42;6.55;;;;;;;26.98;39.98;100027.06;4403072;32;20077;-68
2021/08/05 00:20:26;;;;;;;10.35;6.00;;;;;;;26.97;39.95;100022.63;4406833;32;20073;-68
2021/08/05 00:22:52;;;;;;;14.10;6.70;;;;;;;26.80;40.23;100022.34;4404279;32;20394;-68
2021/08/05 00:25:18;;;;;;;13.15;5.93;;;;;;;26.96;40.03;100018.97;4405652;32;20038;-68
2021/08/05 00:27:45;;;;;;;12.70;6.03;;;;;;;26.79;40.38;100015.03;4405997;32;20427;-70
2021/08/05 00:30:11;;;;;;;9.50;5.87;;;;;;;26.83;40.45;100021.19;4401327;32;20476;-68
2021/08/05 00:32:37;;;;;;;12.30;5.20;;;;;;;26.82;40.38;100022.56;4404015;32;20135;-68
2021/08/05 00:35:04;;;;;;;12.05;5.57;;;;;;;26.79;40.40;100018.66;4410943;32;20066;-68
2021/08/05 00:37:30;;;;;;;7.18;5.20;;;;;;;26.83;40.53;100021.19;4410573;32;20072;-68
2021/08/05 00:39:57;;;;;;;9.23;5.10;;;;;;;26.61;40.82;100019.72;4412261;32;20058;-68
2021/08/05 00:42:23;;;;;;;9.55;5.07;;;;;;;26.70;40.94;100006.87;4411177;32;20367;-68
2021/08/05 00:44:49;;;;;;;10.20;4.95;;;;;;;26.40;41.32;100018.19;4412529;32;20105;-68
2021/08/05 00:47:15;;;;;;;9.00;4.87;;;;;;;26.36;41.36;100009.91;4410977;32;20147;-70
2021/08/05 00:49:40;;;;;;;8.05;5.32;;;;;;;26.39;41.22;100008.00;4411813;32;20482;-68
2021/08/05 00:52:07;;;;;;;11.32;5.05;;;;;;;26.29;41.55;100013.50;4411743;32;20465;-69
2021/08/05 00:54:34;;;;;;;7.70;4.78;;;;;;;26.39;41.45;100013.78;4409179;32;20050;-70
2021/08/05 00:57:00;;;;;;;9.43;5.20;;;;;;;26.40;41.27;100009.53;4410216;32;20037;-68
2021/08/05 00:59:25;;;;;;;7.03;5.05;;;;;;;26.44;41.33;100012.81;4411772;32;20037;-69
2021/08/05 01:01:58;;;;;;;6.82;4.85;;;;;;;26.28;41.46;100011.97;4411218;32;20137;-69
2021/08/05 01:04:24;;;;;;;8.07;5.00;;;;;;;26.32;41.33;100015.25;4411388;32;20064;-68
2021/08/05 01:07:06;;;;;;;6.72;4.43;;;;;;;26.29;41.29;100013.50;4410356;32;20756;-69
2021/08/05 01:12:22;;;;;;;6.15;4.37;;;;;;;27.08;40.24;99999.97;3978542;32;15151750;-68
2021/08/05 01:14:57;;;;;;;6.28;4.95;;;;;;;27.08;40.24;99999.97;4434749;32;20422;-68
2021/08/05 01:17:24;;;;;;;7.97;5.32;;;;;;;26.60;40.90;100000.81;4431153;32;20091;-68
2021/08/05 01:19:56;;;;;;;7.85;4.78;;;;;;;26.49;40.95;99991.72;4431426;32;20041;-68
2021/08/05 01:25:04;;;;;;;8.03;5.23;;;;;;;27.14;39.93;99988.25;3998994;31;15016223;-69
2021/08/05 01:27:32;;;;;;;9.57;5.72;;;;;;;27.14;39.93;99988.25;4445035;32;20393;-69
2021/08/05 01:29:58;;;;;;;10.85;5.82;;;;;;;26.58;40.54;99988.31;4457853;32;20033;-69
2021/08/05 01:32:24;;;;;;;9.55;6.30;;;;;;;26.52;40.74;99990.59;4460031;32;20096;-69
2021/08/05 01:34:50;;;;;;;8.13;5.68;;;;;;;26.49;40.62;99986.72;4454046;32;20111;-69
2021/08/05 01:37:18;;;;;;;10.50;6.07;;;;;;;26.34;40.87;99975.06;4450822;32;20084;-69
2021/08/05 01:39:44;;;;;;;10.45;6.72;;;;;;;26.57;40.66;99978.13;4447384;32;20103;-69
2021/08/05 01:42:11;;;;;;;13.00;6.07;;;;;;;26.41;40.81;99979.34;4456236;32;20634;-69
2021/08/05 01:44:41;;;;;;;11.35;6.05;;;;;;;26.41;40.82;99967.78;4453836;32;20080;-69
2021/08/05 01:47:07;;;;;;;9.02;5.53;;;;;;;26.39;40.85;99962.63;4441373;32;20071;-69
2021/08/05 01:49:34;;;;;;;11.52;5.78;;;;;;;26.36;41.00;99960.88;4452407;32;20457;-69
2021/08/05 01:52:01;;;;;;;11.05;5.50;;;;;;;26.37;40.99;99956.63;4457371;32;20498;-69
2021/08/05 01:54:27;;;;;;;11.15;5.55;;;;;;;26.30;41.09;99957.38;4451373;32;20370;-69
2021/08/05 01:56:54;;;;;;;8.73;5.32;;;;;;;26.26;41.17;99956.94;4457652;32;20500;-69
2021/08/05 01:59:19;;;;;;;9.40;5.95;;;;;;;26.17;41.39;99957.44;4456576;32;20051;-69
2021/08/05 02:01:45;;;;;;;7.95;5.45;;;;;;;26.04;41.69;99953.88;4457236;32;20069;-69
2021/08/05 02:04:21;;;;;;;13.30;7.10;;;;;;;26.07;41.72;99958.50;4456035;32;20074;-69
2021/08/05 02:06:58;;;;;;;10.13;5.90;;;;;;;26.11;41.86;99951.06;4451804;32;21136;-69
2021/08/05 02:09:29;;;;;;;11.15;5.90;;;;;;;26.08;41.99;99954.31;4455442;32;20104;-69
2021/08/05 02:11:57;;;;;;;9.65;5.97;;;;;;;26.00;42.04;99948.47;4455443;32;20368;-69
2021/08/05 02:14:24;;;;;;;11.65;6.00;;;;;;;25.79;42.52;99944.03;4458381;32;20094;-69
2021/08/05 02:16:53;;;;;;;8.68;5.70;;;;;;;25.79;42.63;99941.94;4454098;32;20049;-69
2021/08/05 02:19:18;;;;;;;11.95;6.00;;;;;;;25.71;42.77;99931.69;4453567;32;20071;-69
2021/08/05 02:21:45;;;;;;;11.68;6.80;;;;;;;25.55;42.84;99942.28;4458383;32;20044;-69
2021/08/05 02:24:12;;;;;;;9.60;6.32;;;;;;;25.62;42.93;99932.94;4464195;32;20088;-69
2021/08/05 02:26:40;;;;;;;12.37;5.85;;;;;;;25.63;42.83;99934.50;4460674;32;20136;-70
2021/08/05 02:29:06;;;;;;;11.98;5.87;;;;;;;25.69;42.78;99934.34;4456738;32;20112;-70
2021/08/05 02:31:36;;;;;;;11.07;5.95;;;;;;;25.57;42.83;99933.06;4454294;32;20041;-69
2021/08/05 02:34:04;;;;;;;9.75;6.40;;;;;;;25.75;42.65;99941.50;4453780;32;20114;-70
2021/08/05 02:36:30;;;;;;;8.18;5.70;;;;;;;25.69;42.85;99934.34;4446077;32;20141;-70
2021/08/05 02:38:56;;;;;;;10.52;5.55;;;;;;;25.46;43.04;99924.72;4446243;32;20073;-69
2021/08/05 02:41:22;;;;;;;9.90;5.97;;;;;;;25.44;43.17;99927.38;4447757;32;20243;-70
2021/08/05 02:43:49;;;;;;;10.63;5.62;;;;;;;25.68;42.74;99933.56;4447357;32;20045;-69
2021/08/05 02:46:15;;;;;;;12.40;6.15;;;;;;;25.52;42.94;99926.13;4444761;32;20037;-70
2021/08/05 02:48:42;;;;;;;9.85;5.65;;;;;;;25.53;42.87;99926.91;4448963;32;20092;-69
2021/08/05 02:51:08;;;;;;;12.57;6.22;;;;;;;25.68;42.67;99924.16;4447395;32;20033;-69
2021/08/05 02:53:34;;;;;;;11.12;6.18;;;;;;;25.55;42.89;99915.59;4449619;32;20133;-70
2021/08/05 02:56:00;;;;;;;11.55;5.47;;;;;;;25.55;42.94;99924.25;4440659;32;20146;-70
2021/08/05 02:58:28;;;;;;;11.00;5.97;;;;;;;25.60;42.87;99917.53;4446534;32;20081;-69
2021/08/05 03:00:54;;;;;;;11.10;5.93;;;;;;;25.57;42.71;99895.63;4444391;32;20064;-69
2021/08/05 03:03:22;;;;;;;9.77;6.05;;;;;;;25.49;42.80;99906.31;4439375;32;20076;-69
2021/08/05 03:05:54;;;;;;;12.45;5.70;;;;;;;25.72;42.46;99913.81;4441582;32;20064;-69
2021/08/05 03:08:19;;;;;;;7.53;5.55;;;;;;;25.76;42.33;99905.59;4444191;32;20025;-69
2021/08/05 03:10:45;;;;;;;12.75;6.28;;;;;;;25.63;42.58;99893.38;4444933;32;20120;-69
2021/08/05 03:13:11;;;;;;;13.25;6.30;;;;;;;25.57;42.71;99898.50;4443741;32;20110;-69
2021/08/05 03:15:36;;;;;;;11.43;6.47;;;;;;;25.55;42.70;99889.66;4441887;32;20086;-69
2021/08/05 03:18:02;;;;;;;11.63;6.32;;;;;;;25.60;42.49;99891.59;4449363;32;20036;-69
2021/08/05 03:20:28;;;;;;;11.07;6.65;;;;;;;25.52;42.80;99893.66;4446412;32;20459;-69
2021/08/05 03:22:54;;;;;;;8.27;5.93;;;;;;;25.57;42.74;99890.62;4446744;32;20484;-69
2021/08/05 03:25:19;;;;;;;10.27;6.53;;;;;;;25.63;42.68;99887.59;4446335;32;20072;-69
2021/08/05 03:27:46;;;;;;;13.52;7.07;;;;;;;25.69;42.46;99879.59;4447291;32;20049;-69
2021/08/05 03:30:12;;;;;;;11.07;7.05;;;;;;;25.66;42.56;99883.59;4448748;32;20129;-69
2021/08/05 03:32:38;;;;;;;10.65;6.82;;;;;;;25.47;42.98;99880.16;4442397;32;20444;-69
2021/08/05 03:35:04;;;;;;;9.25;6.45;;;;;;;25.43;42.96;99880.50;4442719;32;20060;-69
2021/08/05 03:37:29;;;;;;;9.23;5.97;;;;;;;25.45;42.94;99874.97;4445639;32;20040;-69
2021/08/05 03:39:55;;;;;;;8.38;5.60;;;;;;;25.23;43.23;99873.41;4445417;32;20501;-69
2021/08/05 03:42:21;;;;;;;9.07;6.50;;;;;;;25.26;42.99;99878.03;4448107;32;20612;-69
2021/08/05 03:44:46;;;;;;;11.35;6.05;;;;;;;25.18;43.06;99868.53;4445140;32;20076;-69
2021/08/05 03:47:12;;;;;;;10.77;5.55;;;;;;;25.13;43.23;99865.81;4440614;32;20077;-69
2021/08/05 03:49:38;;;;;;;7.72;4.87;;;;;;;25.12;43.23;99870.00;4444059;32;20160;-69
2021/08/05 03:52:03;;;;;;;12.82;5.68;;;;;;;24.94;43.56;99874.62;4441759;32;20376;-69
2021/08/05 03:54:29;;;;;;;9.90;5.97;;;;;;;24.91;43.76;99869.97;4443348;32;20033;-69
2021/08/05 03:56:55;;;;;;;10.18;6.15;;;;;;;24.89;43.77;99871.87;4439046;32;20331;-69
2021/08/05 03:59:20;;;;;;;8.27;5.90;;;;;;;24.93;43.61;99860.78;4446240;32;20126;-69
2021/08/05 04:01:46;;;;;;;7.78;5.57;;;;;;;24.94;43.49;99865.19;4439408;32;20497;-69
2021/08/05 04:04:12;;;;;;;9.85;6.20;;;;;;;24.77;43.75;99856.97;4436498;32;20360;-69
2021/08/05 04:06:38;;;;;;;8.65;6.45;;;;;;;24.82;43.81;99853.19;4432746;32;20064;-69
2021/08/05 04:09:03;;;;;;;9.13;7.05;;;;;;;24.82;43.82;99840.91;4446684;32;20081;-69
2021/08/05 04:11:29;;;;;;;11.98;7.25;;;;;;;24.77;44.02;99851.22;4441330;32;20269;-69
2021/08/05 04:13:55;;;;;;;12.85;6.68;;;;;;;24.82;44.00;99847.41;4445628;32;20126;-70
2021/08/05 04:16:20;;;;;;;12.48;6.97;;;;;;;24.55;44.14;99837.31;4440469;32;20135;-69
2021/08/05 04:18:46;;;;;;;13.38;6.40;;;;;;;24.56;43.99;99833.09;4447580;32;20076;-69
2021/08/05 04:21:12;;;;;;;13.50;6.40;;;;;;;24.60;43.85;99835.63;4442174;32;20068;-69
2021/08/05 04:23:37;;;;;;;10.73;5.68;;;;;;;24.50;44.09;99834.53;4444171;32;20120;-69
2021/08/05 04:26:03;;;;;;;8.48;4.95;;;;;;;24.54;44.06;99830.00;4443491;32;20075;-69
2021/08/05 04:28:29;;;;;;;10.10;6.10;;;;;;;24.55;44.07;99837.31;4445396;32;20033;-69
2021/08/05 04:30:54;;;;;;;10.07;5.72;;;;;;;24.50;44.18;99828.78;4445594;32;20550;-69
2021/08/05 04:33:20;;;;;;;10.80;6.50;;;;;;;24.46;44.15;99825.50;4450449;32;20552;-69
2021/08/05 04:35:46;;;;;;;12.68;5.75;;;;;;;24.60;43.89;99821.22;4441008;32;20072;-69
2021/08/05 04:38:14;;;;;;;10.05;6.00;;;;;;;24.54;43.79;99826.37;4441404;32;20041;-69
2021/08/05 04:40:41;;;;;;;15.95;7.47;;;;;;;24.53;43.78;99822.72;4438068;32;20061;-69
2021/08/05 04:43:07;;;;;;;10.05;7.00;;;;;;;24.54;43.72;99815.59;4445715;32;20033;-69
2021/08/05 04:45:32;;;;;;;11.05;6.57;;;;;;;24.57;43.85;99814.50;4443130;32;20041;-69
2021/08/05 04:48:02;;;;;;;11.52;6.65;;;;;;;24.65;43.78;99811.75;4443416;32;20063;-69
2021/08/05 04:50:31;;;;;;;13.93;7.68;;;;;;;24.72;43.52;99813.91;4449164;32;20387;-69
2021/08/05 04:52:59;;;;;;;12.55;6.72;;;;;;;24.76;43.65;99812.25;4439650;32;20140;-69
2021/08/05 04:55:26;;;;;;;14.25;7.53;;;;;;;24.73;43.71;99809.72;4443312;32;20099;-69
2021/08/05 04:57:54;;;;;;;11.88;7.82;;;;;;;24.73;43.83;99798.97;4443851;32;20094;-69
2021/08/05 05:00:23;;;;;;;12.88;7.53;;;;;;;24.72;43.75;99794.56;4439231;32;20075;-69
2021/08/05 05:02:48;;;;;;;9.95;7.03;;;;;;;24.76;43.64;99797.84;4438827;32;20080;-69
2021/08/05 05:05:14;;;;;;;16.15;7.55;;;;;;;24.57;43.84;99799.34;4441141;32;20064;-69
2021/08/05 05:07:40;;;;;;;11.57;7.03;;;;;;;24.53;44.04;99804.66;4443033;32;20398;-69
2021/08/05 05:10:07;;;;;;;11.90;7.80;;;;;;;24.55;43.80;99794.16;4443783;32;20042;-69
2021/08/05 05:12:34;;;;;;;13.18;7.30;;;;;;;24.65;43.57;99791.59;4441477;32;20070;-69
2021/08/05 05:14:59;;;;;;;12.63;7.50;;;;;;;24.68;43.52;99794.16;4448218;32;20072;-69
2021/08/05 05:17:26;;;;;;;10.52;7.20;;;;;;;24.65;43.40;99789.50;4441174;32;20422;-69
2021/08/05 05:19:52;;;;;;;14.30;7.82;;;;;;;24.76;43.18;99789.22;4437527;32;20383;-69
2021/08/05 05:22:17;;;;;;;11.77;7.50;;;;;;;24.52;43.19;99785.88;4438519;32;20088;-69
2021/08/05 05:24:44;;;;;;;10.70;7.70;;;;;;;24.71;43.07;99793.03;4439567;32;20348;-69
2021/08/05 05:27:11;;;;;;;12.70;8.05;;;;;;;24.78;43.07;99792.31;4438278;32;20073;-69
2021/08/05 05:29:37;;;;;;;10.98;8.00;;;;;;;24.71;43.28;99781.50;4428069;32;20079;-69
2021/08/05 05:32:04;;;;;;;14.32;8.68;;;;;;;24.62;43.56;99776.22;4440186;32;20049;-69
2021/08/05 05:34:30;;;;;;;16.48;8.68;;;;;;;24.86;43.18;99775.91;4425644;32;20071;-69
2021/08/05 05:36:56;;;;;;;15.00;8.65;;;;;;;24.83;43.01;99770.50;4445423;32;20366;-69
2021/08/05 05:39:22;;;;;;;14.23;8.48;;;;;;;24.71;43.28;99774.97;4444656;32;20320;-69
2021/08/05 05:41:48;;;;;;;11.65;7.68;;;;;;;24.93;42.70;99762.91;4438874;32;20430;-69
2021/08/05 05:44:14;;;;;;;15.43;8.95;;;;;;;24.90;42.43;99769.78;4439573;32;20100;-69
2021/08/05 05:46:40;;;;;;;12.02;8.18;;;;;;;24.93;42.13;99766.56;4444552;32;20068;-69
2021/08/05 05:49:06;;;;;;;19.00;8.63;;;;;;;24.96;42.38;99768.34;4442370;32;20103;-69
2021/08/05 05:51:31;;;;;;;13.52;8.25;;;;;;;24.84;42.58;99772.03;4447146;32;20526;-69
2021/08/05 05:53:57;;;;;;;12.73;8.40;;;;;;;24.82;42.72;99768.97;4443578;32;20148;-69
2021/08/05 05:56:23;;;;;;;15.68;8.27;;;;;;;24.72;42.77;99765.78;4441248;32;20088;-69
2021/08/05 05:58:49;;;;;;;15.43;8.88;;;;;;;24.74;42.84;99766.00;4440242;32;20101;-69
2021/08/05 06:01:14;;;;;;;12.95;8.55;;;;;;;24.88;42.43;99758.84;4446104;32;20040;-69
2021/08/05 06:03:40;;;;;;;15.00;9.00;;;;;;;24.91;42.36;99756.97;4438548;32;20482;-69
2021/08/05 06:06:06;;;;;;;14.65;8.82;;;;;;;24.98;42.34;99759.13;4444396;32;20103;-69
2021/08/05 06:08:32;;;;;;;18.40;9.30;;;;;;;25.05;42.18;99758.44;4441966;32;20053;-69
2021/08/05 06:10:58;;;;;;;18.58;9.65;;;;;;;25.23;41.79;99743.81;4444274;32;20414;-69
2021/08/05 06:13:24;;;;;;;13.77;9.13;;;;;;;25.29;41.63;99746.53;4448788;32;20038;-69
2021/08/05 06:15:49;;;;;;;18.65;10.18;;;;;;;25.15;41.80;99742.97;4452295;32;20079;-69
2021/08/05 06:18:15;;;;;;;15.98;9.65;;;;;;;25.56;41.13;99733.50;4442587;32;20524;-69
2021/08/05 06:20:41;;;;;;;16.37;9.63;;;;;;;25.77;40.64;99737.06;4449545;32;20441;-69
2021/08/05 06:23:08;;;;;;;19.23;9.63;;;;;;;25.91;40.56;99738.50;4441585;32;20140;-69
2021/08/05 06:25:35;;;;;;;18.10;9.93;;;;;;;25.88;39.81;99735.97;4448065;32;20085;-69
2021/08/05 06:28:01;;;;;;;23.33;10.30;;;;;;;26.06;39.67;99732.84;4441913;32;20101;-69
2021/08/05 06:30:27;;;;;;;19.48;10.38;;;;;;;26.13;39.26;99734.19;4443496;32;20096;-69
2021/08/05 06:32:53;;;;;;;19.40;10.13;;;;;;;26.28;38.69;99726.37;4440748;32;20339;-69
2021/08/05 06:35:19;;;;;;;19.12;8.50;;;;;;;26.25;38.72;99729.63;4438742;32;20021;-69
2021/08/05 06:37:45;;;;;;;14.95;8.98;;;;;;;25.90;38.43;99730.44;4443559;32;20363;-69
2021/08/05 06:40:12;;;;;;;13.88;9.00;;;;;;;25.82;38.60;99726.72;4448583;32;20071;-69
2021/08/05 06:42:37;;;;;;;17.17;8.18;;;;;;;26.04;38.34;99723.19;4449089;32;20361;-69
2021/08/05 06:45:05;;;;;;;18.67;9.18;;;;;;;26.25;38.26;99726.75;4447093;32;20037;-69
2021/08/05 06:47:31;;;;;;;15.02;7.90;;;;;;;26.51;37.94;99729.34;4437565;32;20599;-69
2021/08/05 06:49:57;;;;;;;12.65;7.78;;;;;;;26.08;37.74;99717.84;4446576;32;20033;-69
2021/08/05 06:52:23;;;;;;;13.55;7.35;;;;;;;26.44;37.37;99719.31;4446107;32;20111;-69
2021/08/05 06:54:49;;;;;;;15.43;8.18;;;;;;;26.43;37.25;99720.66;4442859;32;20038;-69
2021/08/05 06:57:15;;;;;;;13.32;8.15;;;;;;;26.53;37.15;99712.22;4440518;32;20037;-69
2021/08/05 06:59:41;;;;;;;13.85;8.27;;;;;;;26.75;36.93;99711.53;4443464;32;20065;-69
2021/08/05 07:02:06;;;;;;;10.63;7.93;;;;;;;26.62;37.20;99708.78;4441127;32;20543;-69
2021/08/05 07:04:32;;;;;;;15.13;8.65;;;;;;;26.53;37.45;99712.22;4445443;32;20072;-69
2021/08/05 07:06:58;;;;;;;13.05;8.10;;;;;;;26.63;37.29;99705.34;4440680;32;20413;-69
2021/08/05 07:09:25;;;;;;;15.02;8.15;;;;;;;26.31;37.97;99701.38;4442835;32;20464;-69
2021/08/05 07:11:51;;;;;;;14.15;7.18;;;;;;;26.54;37.75;99705.13;4440824;32;20136;-69
2021/08/05 07:14:16;;;;;;;12.02;7.87;;;;;;;26.43;38.02;99694.69;4449240;32;20041;-69
2021/08/05 07:16:42;;;;;;;13.18;8.10;;;;;;;26.58;37.89;99694.72;4437981;32;20045;-69
2021/08/05 07:19:07;;;;;;;14.77;7.53;;;;;;;26.62;37.83;99689.37;4446717;32;20383;-69
2021/08/05 07:21:33;;;;;;;11.18;7.40;;;;;;;26.63;37.92;99684.38;4431946;32;20145;-69
2021/08/05 07:23:59;;;;;;;16.90;7.60;;;;;;;26.26;38.78;99674.25;4443042;32;20088;-69
2021/08/05 07:26:24;;;;;;;13.35;6.90;;;;;;;26.25;38.83;99669.84;4441928;32;20057;-69
2021/08/05 07:28:51;;;;;;;12.80;7.05;;;;;;;26.44;38.43;99667.38;4445829;32;20144;-69
2021/08/05 07:31:16;;;;;;;13.02;7.22;;;;;;;26.07;39.15;99661.50;4444990;32;20037;-69
2021/08/05 07:33:43;;;;;;;14.27;7.12;;;;;;;26.17;38.95;99666.16;4448230;32;20135;-69
2021/08/05 07:36:09;;;;;;;12.70;6.50;;;;;;;26.05;39.38;99661.34;4446723;32;20038;-69
2021/08/05 07:38:35;;;;;;;12.20;6.37;;;;;;;25.50;40.08;99668.75;4444919;32;20519;-69
2021/08/05 07:41:01;;;;;;;12.90;6.20;;;;;;;25.32;40.62;99664.78;4444642;32;20153;-69
2021/08/05 07:43:27;;;;;;;12.82;6.60;;;;;;;25.26;40.61;99649.75;4449004;32;20417;-69
2021/08/05 07:45:53;;;;;;;9.35;6.62;;;;;;;25.60;39.68;99659.00;4439674;32;20135;-69
2021/08/05 07:48:19;;;;;;;8.65;6.25;;;;;;;25.67;39.45;99660.38;4441733;32;20369;-69
2021/08/05 07:50:45;;;;;;;17.30;6.93;;;;;;;25.96;38.88;99658.97;4444234;32;20147;-69
2021/08/05 07:53:11;;;;;;;11.30;6.43;;;;;;;26.12;38.59;99655.59;4447193;32;20125;-69
2021/08/05 07:55:37;;;;;;;10.02;5.68;;;;;;;26.28;38.30;99653.50;4442642;32;20113;-69
2021/08/05 07:58:04;;;;;;;9.60;5.50;;;;;;;26.45;37.44;99654.47;4441088;32;20511;-69
2021/08/05 08:00:34;;;;;;;10.63;5.72;;;;;;;25.95;37.32;99637.25;4445042;32;20101;-69
2021/08/05 08:03:00;;;;;;;8.88;5.57;;;;;;;26.01;37.73;99649.41;4437729;32;20108;-69
2021/08/05 08:05:26;;;;;;;9.98;5.47;;;;;;;25.95;37.66;99631.47;4434130;32;20102;-69
2021/08/05 08:07:52;;;;;;;8.68;4.60;;;;;;;26.23;37.34;99652.34;4440673;32;20136;-69
2021/08/05 08:10:18;;;;;;;8.90;5.03;;;;;;;25.92;36.48;99633.38;4441131;32;20030;-69
2021/08/05 08:12:44;;;;;;;7.37;4.47;;;;;;;26.18;36.99;99636.00;4444501;32;20148;-69
2021/08/05 08:15:09;;;;;;;7.53;4.70;;;;;;;25.96;36.78;99633.00;4442249;32;20433;-69
2021/08/05 08:17:36;;;;;;;6.60;4.28;;;;;;;25.79;37.41;99629.88;4442015;32;20120;-69
2021/08/05 08:20:03;;;;;;;9.80;4.00;;;;;;;25.74;37.26;99630.81;4444286;32;20128;-69
2021/08/05 08:22:28;;;;;;;4.78;3.37;;;;;;;25.60;37.37;99630.19;4441531;32;20075;-69
2021/08/05 08:24:55;;;;;;;4.55;3.25;;;;;;;25.82;36.28;99625.84;4444267;32;20127;-69
2021/08/05 08:27:21;;;;;;;5.22;3.03;;;;;;;25.68;36.00;99627.34;4441752;32;20073;-69
2021/08/05 08:29:47;;;;;;;11.07;3.33;;;;;;;25.72;35.73;99622.75;4443038;32;20139;-69
2021/08/05 08:32:12;;;;;;;9.05;2.80;;;;;;;25.54;34.53;99612.28;4443733;32;20056;-69
2021/08/05 08:34:38;;;;;;;5.28;3.03;;;;;;;25.69;33.75;99608.69;4437722;32;20151;-69
2021/08/05 08:37:03;;;;;;;7.35;2.30;;;;;;;25.86;33.36;99620.50;4442919;32;20076;-69
2021/08/05 08:39:29;;;;;;;5.32;2.75;;;;;;;26.10;32.46;99623.66;4447880;32;20111;-69
2021/08/05 08:41:55;;;;;;;12.75;5.32;;;;;;;26.07;31.18;99621.91;4440166;32;20121;-69
2021/08/05 08:44:21;;;;;;;7.60;3.45;;;;;;;26.07;31.55;99621.91;4440889;32;20045;-69
2021/08/05 08:46:47;;;;;;;5.57;3.97;;;;;;;26.48;31.27;99612.19;4435618;32;20054;-69
2021/08/05 08:49:14;;;;;;;12.55;6.03;;;;;;;26.69;31.75;99607.03;4440599;32;20072;-69
2021/08/05 08:51:44;;;;;;;11.65;5.80;;;;;;;26.95;31.35;99607.41;4443431;32;20469;-69
2021/08/05 08:54:10;;;;;;;9.88;3.30;;;;;;;26.72;31.72;99620.31;4442758;32;20132;-70
2021/08/05 08:56:38;;;;;;;9.07;4.28;;;;;;;27.08;31.61;99612.19;4437513;32;20064;-69
2021/08/05 08:59:06;;;;;;;8.35;3.72;;;;;;;26.69;32.08;99607.03;4442582;32;20148;-69
2021/08/05 09:01:32;;;;;;;7.40;3.72;;;;;;;27.31;30.86;99606.38;4445571;32;20123;-68
2021/08/05 09:03:57;;;;;;;8.20;3.50;;;;;;;27.43;30.99;99614.06;4438461;32;20063;-69
2021/08/05 09:06:24;;;;;;;7.10;3.70;;;;;;;27.26;31.61;99599.47;4442176;32;20446;-68
2021/08/05 09:08:50;;;;;;;8.57;3.75;;;;;;;27.25;31.71;99615.25;4439474;32;20068;-69
2021/08/05 09:11:16;;;;;;;11.10;4.05;;;;;;;27.16;32.05;99607.91;4426352;32;20050;-68
2021/08/05 09:13:42;;;;;;;7.00;3.50;;;;;;;27.67;31.84;99613.37;4439238;32;20096;-68
2021/08/05 09:19:15;;;;;;;9.50;3.83;;;;;;;29.39;29.62;99598.97;3999434;31;15014497;-69
2021/08/05 09:22:01;;;;;;;12.02;4.22;;;;;;;29.39;29.62;99598.97;4466204;32;20076;-70
2021/08/05 09:24:29;;;;;;;12.37;5.40;;;;;;;29.29;29.65;99580.00;4463434;32;20529;-70
2021/08/05 09:26:59;;;;;;;13.52;7.25;;;;;;;29.11;29.97;99581.34;4463285;32;20057;-70
2021/08/05 09:29:25;;;;;;;18.15;5.30;;;;;;;29.32;29.80;99567.97;4459089;32;20128;-70
2021/08/05 09:34:36;;;;;;;6.53;4.12;;;;;;;29.90;29.78;99578.66;3953357;32;15723549;-69
2021/08/05 09:37:05;;;;;;;8.40;3.85;;;;;;;29.90;29.78;99578.66;4431890;32;20084;-69
2021/08/05 09:39:33;;;;;;;8.00;3.53;;;;;;;29.69;30.02;99566.00;4427411;32;20069;-69
2021/08/05 09:52:31;;;;;;;11.75;5.00;;;;;;;30.05;30.36;99540.72;3979931;32;15025375;-68
2021/08/05 09:54:58;;;;;;;8.50;3.58;;;;;;;30.05;30.36;99540.72;4434161;32;20085;-68
2021/08/05 09:57:26;;;;;;;15.45;4.18;;;;;;;29.04;31.51;99536.59;4430969;32;20097;-68
2021/08/05 10:02:51;;;;;;;12.97;5.87;;;;;;;29.63;30.83;99531.47;3997791;31;15018886;-70
2021/08/05 10:05:21;;;;;;;9.77;4.87;;;;;;;29.63;30.83;99531.47;4449604;32;20094;-70
2021/08/05 10:07:48;;;;;;;7.32;3.47;;;;;;;29.51;30.96;99530.44;4454028;32;20376;-70
2021/08/05 10:10:17;;;;;;;7.78;4.45;;;;;;;29.69;30.33;99528.31;4456343;32;20080;-70
2021/08/05 10:15:28;;;;;;;6.95;3.33;;;;;;;31.37;27.71;99530.09;3982027;32;15024708;-69
2021/08/05 10:17:59;;;;;;;9.50;3.40;;;;;;;31.37;27.71;99530.09;4430250;32;20048;-69
2021/08/05 10:20:26;;;;;;;9.85;3.83;;;;;;;31.38;27.35;99517.09;4431983;32;20088;-69
2021/08/05 10:22:55;;;;;;;11.80;3.67;;;;;;;31.18;27.72;99512.66;4430819;32;20088;-69
2021/08/05 10:25:25;;;;;;;9.10;3.78;;;;;;;31.12;27.63;99502.69;4433143;32;20073;-69
2021/08/05 10:27:54;;;;;;;7.10;3.30;;;;;;;31.06;27.86;99510.94;4431845;32;20434;-69
2021/08/05 10:30:20;;;;;;;9.52;4.12;;;;;;;30.45;28.62;99500.44;4433038;32;20069;-69
2021/08/05 10:32:48;;;;;;;10.40;3.83;;;;;;;30.64;28.12;99491.00;4432708;32;20029;-69
2021/08/05 10:35:15;;;;;;;8.73;4.30;;;;;;;30.40;28.72;99489.87;4428601;32;20110;-69
2021/08/05 10:37:42;;;;;;;4.55;3.28;;;;;;;30.71;28.23;99493.75;4428757;32;20418;-69
2021/08/05 10:40:11;;;;;;;9.02;3.60;;;;;;;30.62;27.61;99493.75;4427837;32;20057;-69
2021/08/05 10:42:40;;;;;;;14.87;4.22;;;;;;;30.96;27.26;99478.22;4431542;32;20404;-69
2021/08/05 10:45:06;;;;;;;6.87;3.58;;;;;;;31.07;27.00;99490.00;4430000;32;20418;-69
2021/08/05 10:47:33;;;;;;;8.50;5.07;;;;;;;31.33;26.81;99477.47;4433246;32;20481;-69
2021/08/05 10:50:07;;;;;;;5.93;3.75;;;;;;;31.26;27.07;99486.34;4430915;32;20088;-69
2021/08/05 10:58:15;;;;;;;8.70;3.53;;;;;;;30.55;25.98;99474.31;3960529;32;15024311;-69
2021/08/05 11:01:01;;;;;;;7.18;3.15;;;;;;;30.17;27.27;99474.97;4413630;32;20073;-69
2021/08/05 11:09:25;;;;;;;11.40;6.33;;;;;;;30.83;26.78;99476.53;3995202;31;15016059;-70
2021/08/05 11:11:50;;;;;;;6.85;3.78;;;;;;;30.83;26.78;99476.53;4460568;32;20041;-70
2021/08/05 11:19:30;;;;;;;7.68;4.18;;;;;;;31.15;27.30;99438.31;3982242;32;15026360;-70
2021/08/05 11:21:57;;;;;;;7.95;4.35;;;;;;;31.15;27.30;99438.31;4433268;32;20063;-70
2021/08/05 11:27:22;;;;;;;8.13;4.45;;;;;;;30.56;28.31;99426.50;3970617;32;15022151;-69
2021/08/05 11:29:49;;;;;;;10.05;4.70;;;;;;;30.57;28.60;99428.03;4424103;32;20029;-69
2021/08/05 11:32:35;;;;;;;9.65;5.28;;;;;;;31.19;27.90;99432.00;4423473;32;20120;-69
2021/08/05 11:35:04;;;;;;;9.40;4.53;;;;;;;32.01;26.75;99433.06;4424767;32;20042;-69
2021/08/05 11:37:29;;;;;;;8.27;4.62;;;;;;;32.18;26.56;99426.25;4423555;32;20116;-69
2021/08/05 11:39:58;;;;;;;8.70;4.40;;;;;;;32.00;26.71;99428.59;4425565;32;20069;-69
2021/08/05 11:42:25;;;;;;;13.18;4.35;;;;;;;31.11;27.63;99420.56;4424272;32;20072;-69
2021/08/05 11:50:15;;;;;;;10.70;5.22;;;;;;;30.10;29.79;99408.34;3978832;32;15024491;-70
2021/08/05 11:52:43;;;;;;;8.35;4.40;;;;;;;30.10;29.79;99408.34;4432170;32;20448;-70
2021/08/05 12:00:35;;;;;;;7.72;4.97;;;;;;;29.89;32.16;99405.22;3983859;32;15022844;-69
2021/08/05 12:03:04;;;;;;;13.40;6.20;;;;;;;29.89;32.16;99405.22;4435593;32;20066;-69
2021/08/05 12:05:37;;;;;;;9.82;5.15;;;;;;;29.47;31.21;99390.19;4431787;32;20057;-69
2021/08/05 12:08:02;;;;;;;11.82;5.10;;;;;;;29.74;30.71;99382.25;4434263;32;20048;-69
2021/08/05 12:10:30;;;;;;;10.27;5.12;;;;;;;29.22;31.44;99387.47;4434577;32;20088;-69
2021/08/05 12:13:03;;;;;;;12.18;5.30;;;;;;;29.36;31.41;99384.97;4432262;32;20135;-69
2021/08/05 12:15:46;;;;;;;9.00;5.30;;;;;;;29.45;31.43;99378.44;4435006;32;20025;-69
2021/08/05 12:18:16;;;;;;;8.48;4.22;;;;;;;29.93;30.70;99374.41;4434595;32;20381;-69
2021/08/05 12:20:46;;;;;;;11.73;4.57;;;;;;;30.58;29.64;99371.47;4435649;32;20061;-69
2021/08/05 12:26:35;;;;;;;7.72;4.93;;;;;;;29.78;30.42;99359.38;3983067;32;15024359;-70